createdAt,value
2023-01-08T00:01:15.402Z,38.36
2023-01-08T00:03:42.783Z,38.39
2023-01-08T00:06:12.950Z,38.33
2023-01-08T00:08:39.907Z,38.22
2023-01-08T00:11:06.978Z,38.27
2023-01-08T00:13:33.733Z,38.22
2023-01-08T00:16:09.873Z,38.15
2023-01-08T00:18:36.796Z,38.39
2023-01-08T00:21:04.277Z,38.37
2023-01-08T00:23:31.650Z,38.34
2023-01-08T00:26:02.257Z,38.04
2023-01-08T00:28:29.665Z,38.39
2023-01-08T00:30:56.415Z,38.38
2023-01-08T00:33:23.082Z,38.23
2023-01-08T00:35:49.932Z,38.25
2023-01-08T00:38:16.854Z,38.19
2023-01-08T00:40:43.469Z,38.14
2023-01-08T00:43:10.072Z,38.01
2023-01-08T00:45:36.862Z,37.98
2023-01-08T00:48:03.717Z,38.26
2023-01-08T00:50:30.305Z,38.05
2023-01-08T00:52:57.228Z,38.02
2023-01-08T00:55:23.890Z,37.91
2023-01-08T00:57:50.528Z,38.13
2023-01-08T01:00:17.350Z,38.19
2023-01-08T01:02:44.613Z,38.17
2023-01-08T01:05:15.462Z,37.90
2023-01-08T01:07:43.336Z,38.28
2023-01-08T01:10:11.879Z,37.93
2023-01-08T01:12:39.145Z,37.71
2023-01-08T01:15:08.520Z,38.11
2023-01-08T01:17:37.725Z,37.90
2023-01-08T01:20:05.170Z,38.06
2023-01-08T01:22:32.120Z,37.98
2023-01-08T01:24:58.959Z,37.93
2023-01-08T01:27:26.340Z,37.76
2023-01-08T01:29:53.769Z,37.81
2023-01-08T01:32:20.645Z,37.76
2023-01-08T01:34:47.255Z,37.58
2023-01-08T01:37:14.703Z,37.63
2023-01-08T01:39:46.633Z,37.98
2023-01-08T01:42:37.076Z,37.85
2023-01-08T01:45:16.708Z,37.64
2023-01-08T01:47:47.768Z,37.64
2023-01-08T01:50:18.187Z,37.78
2023-01-08T01:52:50.982Z,37.59
2023-01-08T01:55:18.650Z,37.78
2023-01-08T01:57:52.783Z,37.94
2023-01-08T02:00:20.256Z,37.77
2023-01-08T02:02:46.822Z,37.75
2023-01-08T02:05:13.673Z,37.73
2023-01-08T02:07:52.564Z,37.54
2023-01-08T02:10:37.088Z,37.80
2023-01-08T02:13:26.434Z,37.49
2023-01-08T02:16:05.405Z,37.53
2023-01-08T02:18:46.502Z,37.51
2023-01-08T02:22:43.053Z,37.23
2023-01-08T02:25:40.700Z,37.52
2023-01-08T02:28:11.592Z,37.66
2023-01-08T02:30:38.638Z,37.39
2023-01-08T02:33:05.321Z,37.53
2023-01-08T02:35:39.742Z,37.42
2023-01-08T02:38:06.770Z,37.63
2023-01-08T02:40:42.227Z,37.51
2023-01-08T02:43:21.724Z,37.42
2023-01-08T02:45:57.219Z,37.46
2023-01-08T02:48:47.605Z,37.66
2023-01-08T02:51:20.523Z,37.36
2023-01-08T02:53:51.080Z,37.56
2023-01-08T02:56:26.283Z,37.42
2023-01-08T02:58:54.197Z,37.47
2023-01-08T03:01:24.309Z,37.37
2023-01-08T03:03:58.244Z,37.56
2023-01-08T03:06:26.494Z,37.49
2023-01-08T03:08:54.066Z,37.63
2023-01-08T03:11:23.695Z,37.56
2023-01-08T03:14:05.361Z,37.23
2023-01-08T03:16:41.973Z,37.53
2023-01-08T03:19:15.394Z,37.35
2023-01-08T03:21:44.553Z,37.30
2023-01-08T03:24:14.981Z,37.28
2023-01-08T03:26:44.800Z,37.27
2023-01-08T03:29:14.987Z,37.20
2023-01-08T03:31:44.027Z,37.24
2023-01-08T03:34:12.276Z,37.19
2023-01-08T03:36:44.105Z,37.38
2023-01-08T03:39:26.378Z,37.25
2023-01-08T03:41:59.502Z,37.47
2023-01-08T03:44:26.286Z,37.29
2023-01-08T03:46:55.465Z,37.36
2023-01-08T03:49:24.803Z,37.25
2023-01-08T03:51:51.433Z,37.15
2023-01-08T03:54:23.666Z,37.19
2023-01-08T03:56:50.209Z,37.32
2023-01-08T03:59:17.539Z,37.27
2023-01-08T04:01:44.497Z,37.32
2023-01-08T04:04:11.976Z,37.22
2023-01-08T04:06:38.717Z,37.18
2023-01-08T04:09:05.271Z,37.31
2023-01-08T04:11:32.076Z,36.99
2023-01-08T04:13:58.838Z,37.11
2023-01-08T04:16:25.681Z,37.19
2023-01-08T04:18:52.207Z,37.08
2023-01-08T04:21:18.910Z,37.11
2023-01-08T04:23:45.641Z,37.20
2023-01-08T04:26:12.324Z,37.16
2023-01-08T04:28:39.659Z,37.06
2023-01-08T04:31:10.106Z,37.14
2023-01-08T04:33:37.021Z,37.13
2023-01-08T04:36:04.743Z,37.20
2023-01-08T04:38:31.463Z,36.86
2023-01-08T04:41:02.312Z,37.19
2023-01-08T04:43:30.112Z,36.98
2023-01-08T04:46:07.596Z,36.87
2023-01-08T04:48:34.804Z,37.05
2023-01-08T04:51:03.184Z,37.11
2023-01-08T04:53:32.995Z,36.93
2023-01-08T04:56:08.677Z,37.18
2023-01-08T04:58:36.645Z,36.90
2023-01-08T05:01:29.707Z,37.09
2023-01-08T05:03:59.296Z,37.02
2023-01-08T05:06:26.778Z,36.85
2023-01-08T05:08:53.534Z,36.75
2023-01-08T05:11:20.572Z,36.87
2023-01-08T05:13:51.670Z,36.82
2023-01-08T05:16:18.704Z,36.71
2023-01-08T05:18:45.675Z,36.76
2023-01-08T05:21:13.755Z,36.84
2023-01-08T05:23:40.663Z,36.96
2023-01-08T05:26:07.670Z,36.93
2023-01-08T05:28:34.933Z,37.09
2023-01-08T05:31:01.677Z,36.83
2023-01-08T05:33:28.430Z,37.00
2023-01-08T05:35:55.049Z,36.76
2023-01-08T05:38:21.707Z,36.91
2023-01-08T05:40:48.386Z,36.83
2023-01-08T05:43:14.936Z,36.81
2023-01-08T05:45:41.659Z,36.73
2023-01-08T05:48:08.509Z,36.90
2023-01-08T05:50:35.897Z,36.69
2023-01-08T05:55:12.939Z,36.79
2023-01-08T05:57:39.591Z,36.57
2023-01-08T06:00:11.581Z,36.68
2023-01-08T06:02:38.655Z,36.82
2023-01-08T06:05:05.539Z,36.76
2023-01-08T06:07:32.243Z,36.70
2023-01-08T06:09:58.789Z,36.64
2023-01-08T06:12:25.320Z,36.60
2023-01-08T06:14:51.921Z,36.67
2023-01-08T06:17:18.575Z,36.55
2023-01-08T06:19:47.319Z,36.68
2023-01-08T06:22:14.219Z,36.76
2023-01-08T06:24:40.782Z,36.88
2023-01-08T06:27:07.494Z,36.56
2023-01-08T06:29:34.146Z,36.72
2023-01-08T06:32:00.878Z,36.63
2023-01-08T06:34:27.399Z,36.69
2023-01-08T06:36:54.144Z,36.55
2023-01-08T06:39:20.780Z,36.56
2023-01-08T06:41:47.491Z,36.59
2023-01-08T06:44:14.147Z,36.73
2023-01-08T06:46:40.974Z,36.68
2023-01-08T06:49:08.047Z,36.53
2023-01-08T06:51:35.046Z,36.55
2023-01-08T06:54:02.259Z,36.67
2023-01-08T06:56:28.915Z,36.60
2023-01-08T06:58:55.541Z,36.51
2023-01-08T07:01:23.096Z,36.48
2023-01-08T07:03:49.849Z,36.65
2023-01-08T07:06:19.150Z,36.55
2023-01-08T07:08:46.435Z,36.33
2023-01-08T07:11:14.124Z,36.34
2023-01-08T07:13:40.693Z,36.64
2023-01-08T07:16:12.867Z,36.58
2023-01-08T07:18:40.080Z,36.51
2023-01-08T07:21:08.243Z,36.51
2023-01-08T07:23:35.632Z,36.39
2023-01-08T07:26:03.509Z,36.47
2023-01-08T07:28:30.660Z,36.46
2023-01-08T07:30:57.319Z,36.30
2023-01-08T07:33:24.073Z,36.50
2023-01-08T07:35:55.251Z,36.48
2023-01-08T07:38:22.758Z,36.32
2023-01-08T07:40:52.368Z,36.39
2023-01-08T07:43:19.077Z,36.27
2023-01-08T07:45:46.042Z,36.47
2023-01-08T07:48:16.462Z,36.25
2023-01-08T07:50:44.475Z,36.50
2023-01-08T07:53:12.940Z,36.57
2023-01-08T07:55:39.799Z,36.53
2023-01-08T07:58:13.839Z,36.42
2023-01-08T08:00:41.282Z,36.17
2023-01-08T08:03:11.626Z,36.42
2023-01-08T08:05:39.019Z,36.11
2023-01-08T08:08:12.701Z,36.33
2023-01-08T08:10:40.333Z,36.09
2023-01-08T08:13:07.462Z,36.13
2023-01-08T08:15:35.819Z,36.35
2023-01-08T08:18:02.921Z,36.33
2023-01-08T08:20:29.884Z,36.34
2023-01-08T08:23:14.363Z,36.32
2023-01-08T08:25:42.819Z,36.19
2023-01-08T08:28:11.559Z,36.33
2023-01-08T08:30:42.008Z,36.34
2023-01-08T08:33:10.210Z,36.18
2023-01-08T08:35:37.701Z,36.17
2023-01-08T08:38:05.022Z,36.04
2023-01-08T08:40:31.891Z,36.15
2023-01-08T08:43:01.101Z,36.33
2023-01-08T08:45:28.529Z,36.21
2023-01-08T08:47:55.802Z,36.23
2023-01-08T08:50:22.716Z,36.33
2023-01-08T08:52:49.431Z,36.60
2023-01-08T08:55:17.245Z,36.67
2023-01-08T08:57:45.493Z,36.69
2023-01-08T09:00:13.616Z,36.59
2023-01-08T09:02:40.437Z,36.86
2023-01-08T09:05:07.412Z,36.80
2023-01-08T09:07:34.198Z,36.93
2023-01-08T09:10:00.782Z,36.72
2023-01-08T09:12:27.487Z,36.75
2023-01-08T09:14:54.917Z,36.64
2023-01-08T09:17:21.741Z,36.82
2023-01-08T09:19:48.563Z,36.70
2023-01-08T09:22:15.243Z,36.63
2023-01-08T09:24:41.749Z,36.79
2023-01-08T09:27:11.241Z,36.57
2023-01-08T09:29:37.928Z,36.46
2023-01-08T09:32:08.500Z,36.63
2023-01-08T09:34:38.620Z,36.63
2023-01-08T09:37:05.613Z,36.71
2023-01-08T09:39:32.350Z,36.56
2023-01-08T09:42:05.825Z,36.43
2023-01-08T09:44:42.124Z,36.48
2023-01-08T09:47:34.486Z,36.47
2023-01-08T09:50:05.049Z,36.52
2023-01-08T09:52:32.038Z,36.44
2023-01-08T09:55:00.392Z,36.46
2023-01-08T09:57:29.149Z,36.45
2023-01-08T09:59:55.817Z,36.67
2023-01-08T10:02:25.124Z,36.66
2023-01-08T10:04:56.790Z,36.59
2023-01-08T10:07:25.856Z,36.71
2023-01-08T10:09:53.604Z,36.59
2023-01-08T10:12:29.760Z,36.54
2023-01-08T10:15:03.379Z,36.47
2023-01-08T10:17:38.428Z,36.37
2023-01-08T10:20:13.780Z,36.46
2023-01-08T10:22:40.655Z,36.43
2023-01-08T10:25:13.461Z,36.58
2023-01-08T10:27:57.164Z,36.35
2023-01-08T10:30:34.359Z,36.33
2023-01-08T10:33:12.121Z,36.34
2023-01-08T10:35:41.649Z,36.30
2023-01-08T10:38:25.679Z,36.54
2023-01-08T10:40:52.738Z,36.74
2023-01-08T10:43:32.369Z,36.50
2023-01-08T10:46:02.851Z,36.45
2023-01-08T10:48:46.293Z,36.54
2023-01-08T10:51:20.136Z,36.61
2023-01-08T10:53:47.252Z,36.70
2023-01-08T10:56:21.745Z,36.61
2023-01-08T10:58:49.070Z,36.74
2023-01-08T11:01:23.376Z,36.76
2023-01-08T11:04:01.825Z,36.74
2023-01-08T11:06:36.229Z,36.70
2023-01-08T11:09:19.540Z,36.54
2023-01-08T11:11:46.174Z,36.77
2023-01-08T11:14:27.873Z,36.69
2023-01-08T11:16:55.297Z,36.71
2023-01-08T11:19:33.173Z,36.59
2023-01-08T11:22:18.758Z,36.61
2023-01-08T11:24:46.696Z,36.53
2023-01-08T11:27:13.172Z,36.58
2023-01-08T11:30:04.396Z,36.94
2023-01-08T11:32:52.791Z,36.94
2023-01-08T11:35:26.688Z,36.71
2023-01-08T11:37:59.612Z,36.86
2023-01-08T11:40:50.065Z,36.54
2023-01-08T11:43:50.927Z,36.49
2023-01-08T11:46:20.692Z,36.76
2023-01-08T11:48:54.886Z,36.69
2023-01-08T11:51:58.830Z,36.44
2023-01-08T11:54:59.639Z,36.79
2023-01-08T11:57:29.054Z,36.64
2023-01-08T12:00:17.385Z,36.45
2023-01-08T12:02:57.753Z,36.46
2023-01-08T12:05:36.625Z,36.48
2023-01-08T12:08:26.405Z,36.45
2023-01-08T12:10:53.027Z,36.48
2023-01-08T12:13:41.620Z,36.44
2023-01-08T12:16:17.124Z,36.63
2023-01-08T12:19:17.197Z,36.47
2023-01-08T12:22:01.474Z,36.48
2023-01-08T12:24:48.927Z,36.37
2023-01-08T12:27:29.814Z,36.47
2023-01-08T12:30:28.001Z,36.69
2023-01-08T12:33:17.436Z,36.53
2023-01-08T12:35:50.253Z,36.62
2023-01-08T12:38:38.020Z,36.54
2023-01-08T12:44:04.060Z,36.79
2023-01-08T12:46:34.263Z,37.00
2023-01-08T12:49:02.079Z,37.19
2023-01-08T12:51:32.574Z,37.21
2023-01-08T12:54:20.759Z,37.21
2023-01-08T12:57:04.427Z,37.28
2023-01-08T12:59:48.432Z,37.57
2023-01-08T13:02:33.612Z,37.50
2023-01-08T13:05:30.734Z,37.66
2023-01-08T13:08:05.258Z,37.80
2023-01-08T13:10:31.867Z,38.08
2023-01-08T13:13:01.855Z,38.35
2023-01-08T13:15:31.241Z,38.41
2023-01-08T13:18:16.839Z,38.81
2023-01-08T13:20:56.066Z,38.80
2023-01-08T13:23:28.050Z,38.76
2023-01-08T13:25:56.994Z,38.95
2023-01-08T13:28:35.621Z,39.13
2023-01-08T13:31:29.008Z,39.01
2023-01-08T13:33:55.986Z,39.05
2023-01-08T13:36:26.513Z,39.29
2023-01-08T13:39:06.100Z,39.67
2023-01-08T13:41:37.137Z,39.73
2023-01-08T13:44:05.346Z,39.75
2023-01-08T13:46:38.304Z,39.52
2023-01-08T13:49:08.107Z,39.14
2023-01-08T13:51:43.910Z,38.76
2023-01-08T13:54:14.018Z,38.53
2023-01-08T13:56:43.646Z,38.33
2023-01-08T13:59:31.771Z,38.48
2023-01-08T14:02:01.460Z,38.36
2023-01-08T14:04:29.066Z,38.12
2023-01-08T14:07:12.849Z,37.79
2023-01-08T14:09:39.639Z,37.91
2023-01-08T14:12:09.070Z,38.08
2023-01-08T14:14:39.077Z,38.00
2023-01-08T14:17:06.886Z,37.88
2023-01-08T14:19:33.896Z,37.62
2023-01-08T14:22:04.044Z,37.99
2023-01-08T14:24:30.867Z,38.04
2023-01-08T14:26:59.896Z,37.93
2023-01-08T14:29:34.553Z,37.88
2023-01-08T14:32:01.949Z,37.89
2023-01-08T14:34:32.257Z,37.97
2023-01-08T14:36:59.077Z,38.08
2023-01-08T14:39:33.523Z,37.90
2023-01-08T14:42:47.369Z,37.84
2023-01-08T14:45:20.485Z,38.01
2023-01-08T14:47:50.677Z,37.99
2023-01-08T14:50:33.817Z,37.86
2023-01-08T14:53:24.758Z,37.95
2023-01-08T14:55:53.685Z,37.86
2023-01-08T14:58:30.860Z,37.97
2023-01-08T15:01:02.321Z,38.23
2023-01-08T15:03:35.134Z,38.06
2023-01-08T15:06:01.951Z,38.01
2023-01-08T15:08:40.486Z,38.06
2023-01-08T15:11:19.321Z,38.04
2023-01-08T15:13:48.215Z,38.10
2023-01-08T15:16:30.737Z,38.15
2023-01-08T15:19:13.966Z,38.34
2023-01-08T15:21:47.379Z,38.40
2023-01-08T15:24:34.973Z,38.98
2023-01-08T15:27:09.782Z,40.06
2023-01-08T15:29:59.832Z,40.42
2023-01-08T15:32:34.083Z,40.41
2023-01-08T15:35:01.709Z,40.41
2023-01-08T15:37:28.283Z,40.72
2023-01-08T15:39:54.831Z,40.70
2023-01-08T15:42:47.622Z,40.54
2023-01-08T15:45:28.468Z,40.53
2023-01-08T15:47:55.507Z,40.78
2023-01-08T15:52:49.245Z,41.64
2023-01-08T15:55:19.715Z,41.80
2023-01-08T15:57:46.486Z,41.72
2023-01-08T16:00:15.074Z,41.70
2023-01-08T16:02:46.396Z,41.74
2023-01-08T16:05:14.435Z,41.63
2023-01-08T16:07:41.218Z,41.40
2023-01-08T16:12:28.394Z,41.06
2023-01-08T16:14:54.992Z,41.05
2023-01-08T16:17:22.696Z,41.05
2023-01-08T16:19:49.550Z,40.87
2023-01-08T16:22:16.816Z,40.91
2023-01-08T16:24:43.955Z,40.84
2023-01-08T16:27:10.778Z,41.07
2023-01-08T16:29:37.635Z,40.73
2023-01-08T16:32:04.499Z,40.77
2023-01-08T16:34:31.703Z,40.85
2023-01-08T16:36:58.277Z,40.54
2023-01-08T16:39:25.003Z,40.44
2023-01-08T16:41:51.650Z,40.35
2023-01-08T16:44:24.379Z,40.26
2023-01-08T16:46:52.423Z,40.22
2023-01-08T16:49:19.003Z,40.14
2023-01-08T16:51:45.723Z,40.21
2023-01-08T16:54:13.939Z,40.17
2023-01-08T16:56:40.683Z,40.12
2023-01-08T16:59:18.287Z,40.17
2023-01-08T17:01:49.623Z,40.17
2023-01-08T17:04:16.383Z,40.24
2023-01-08T17:06:43.046Z,40.23
2023-01-08T17:09:11.517Z,40.05
2023-01-08T17:11:38.711Z,39.98
2023-01-08T17:14:05.446Z,39.98
2023-01-08T17:16:32.156Z,40.15
2023-01-08T17:18:58.709Z,40.11
2023-01-08T17:21:25.439Z,39.84
2023-01-08T17:23:52.079Z,39.64
2023-01-08T17:26:21.100Z,39.76
2023-01-08T17:28:47.658Z,39.71
2023-01-08T17:31:20.064Z,39.57
2023-01-08T17:33:50.677Z,39.53
2023-01-08T17:36:27.661Z,39.52
2023-01-08T17:38:54.456Z,39.43
2023-01-08T17:41:41.248Z,39.41
2023-01-08T17:44:09.882Z,39.40
2023-01-08T17:46:39.689Z,39.28
2023-01-08T17:51:25.178Z,39.24
2023-01-08T17:53:51.857Z,39.38
2023-01-08T17:56:18.572Z,39.30
2023-01-08T17:58:45.913Z,39.23
2023-01-08T18:01:13.496Z,39.23
2023-01-08T18:03:40.205Z,39.57
2023-01-08T18:06:11.470Z,40.51
2023-01-08T18:08:38.908Z,40.92
2023-01-08T18:11:07.899Z,41.16
2023-01-08T18:13:35.102Z,41.11
2023-01-08T18:16:06.670Z,41.05
2023-01-08T18:20:45.356Z,41.05
2023-01-08T18:23:12.110Z,40.95
2023-01-08T18:25:41.508Z,40.55
2023-01-08T18:28:11.103Z,40.49
2023-01-08T18:30:37.916Z,40.24
2023-01-08T18:33:04.546Z,39.91
2023-01-08T18:35:32.605Z,39.94
2023-01-08T18:37:59.300Z,39.84
2023-01-08T18:40:26.005Z,39.74
2023-01-08T18:42:52.679Z,39.53
2023-01-08T18:45:19.667Z,39.22
2023-01-08T18:47:46.402Z,39.41
2023-01-08T18:50:13.279Z,39.34
2023-01-08T18:52:41.400Z,39.22
2023-01-08T18:55:08.438Z,39.29
2023-01-08T18:57:35.129Z,39.08
2023-01-08T19:00:03.523Z,39.18
2023-01-08T19:02:36.096Z,39.21
2023-01-08T19:05:03.036Z,39.17
2023-01-08T19:07:32.850Z,39.10
2023-01-08T19:10:01.216Z,39.24
2023-01-08T19:12:30.782Z,39.24
2023-01-08T19:15:04.036Z,39.20
2023-01-08T19:17:32.145Z,39.21
2023-01-08T19:19:59.123Z,39.25
2023-01-08T19:22:28.724Z,39.35
2023-01-08T19:24:56.441Z,39.32
2023-01-08T19:27:23.852Z,39.29
2023-01-08T19:29:53.385Z,39.39
2023-01-08T19:32:20.285Z,39.40
2023-01-08T19:34:47.205Z,39.52
2023-01-08T19:37:14.896Z,39.48
2023-01-08T19:39:41.547Z,39.46
2023-01-08T19:42:29.007Z,39.59
2023-01-08T19:44:56.366Z,39.60
2023-01-08T19:47:23.357Z,39.60
2023-01-08T19:49:50.284Z,39.53
2023-01-08T19:52:17.941Z,39.61
2023-01-08T19:54:45.690Z,39.57
2023-01-08T19:57:12.493Z,39.66
2023-01-08T19:59:39.222Z,40.17
2023-01-08T20:02:05.983Z,41.08
2023-01-08T20:04:36.039Z,41.85
2023-01-08T20:07:02.693Z,42.23
2023-01-08T20:09:29.480Z,41.94
2023-01-08T20:11:59.005Z,41.79
2023-01-08T20:14:25.624Z,41.68
2023-01-08T20:16:52.899Z,41.62
2023-01-08T20:19:19.686Z,41.21
2023-01-08T20:21:46.430Z,41.26
2023-01-08T20:26:36.120Z,40.85
2023-01-08T20:29:03.624Z,40.64
2023-01-08T20:31:31.295Z,40.35
2023-01-08T20:33:59.539Z,40.55
2023-01-08T20:36:33.353Z,40.32
2023-01-08T20:39:03.500Z,40.06
2023-01-08T20:41:33.457Z,40.22
2023-01-08T20:44:06.370Z,40.30
2023-01-08T20:46:35.653Z,40.25
2023-01-08T20:49:05.297Z,39.98
2023-01-08T20:51:33.753Z,40.05
2023-01-08T20:54:01.745Z,40.07
2023-01-08T20:56:35.393Z,40.04
2023-01-08T20:59:02.857Z,39.73
2023-01-08T21:01:36.667Z,39.53
2023-01-08T21:04:05.761Z,39.26
2023-01-08T21:06:34.191Z,39.14
2023-01-08T21:09:06.994Z,39.12
2023-01-08T21:11:35.849Z,39.13
2023-01-08T21:14:03.065Z,39.08
2023-01-08T21:16:31.032Z,39.15
2023-01-08T21:18:58.939Z,38.91
2023-01-08T21:21:34.810Z,38.90
2023-01-08T21:24:08.690Z,38.76
2023-01-08T21:26:39.571Z,38.58
2023-01-08T21:29:07.457Z,38.76
2023-01-08T21:31:36.213Z,38.50
2023-01-08T21:34:07.403Z,38.50
2023-01-08T21:36:34.282Z,38.58
2023-01-08T21:39:02.068Z,38.45
2023-01-08T21:41:48.532Z,38.62
2023-01-08T21:44:35.187Z,38.56
2023-01-08T21:47:03.644Z,38.64
2023-01-08T21:49:31.753Z,38.80
2023-01-08T21:52:17.404Z,38.74
2023-01-08T21:54:43.994Z,38.75
2023-01-08T21:57:10.760Z,39.12
2023-01-08T21:59:37.558Z,39.33
2023-01-08T22:02:05.372Z,39.41
2023-01-08T22:04:32.560Z,39.69
2023-01-08T22:06:59.253Z,39.74
2023-01-08T22:09:26.146Z,39.77
2023-01-08T22:11:56.065Z,39.27
2023-01-08T22:14:23.353Z,39.04
2023-01-08T22:16:52.662Z,38.71
2023-01-08T22:19:19.391Z,38.74
2023-01-08T22:21:46.201Z,38.49
2023-01-08T22:24:12.799Z,38.45
2023-01-08T22:26:39.297Z,38.36
2023-01-08T22:29:06.573Z,38.25
2023-01-08T22:31:34.081Z,38.34
2023-01-08T22:34:01.083Z,38.36
2023-01-08T22:36:27.871Z,38.21
2023-01-08T22:38:54.494Z,38.24
2023-01-08T22:41:23.242Z,38.41
2023-01-08T22:43:55.852Z,38.36
2023-01-08T22:46:23.861Z,38.11
2023-01-08T22:48:50.485Z,38.18
2023-01-08T22:51:17.580Z,38.10
2023-01-08T22:53:44.184Z,37.97
2023-01-08T22:56:14.872Z,37.82
2023-01-08T22:58:45.270Z,37.90
2023-01-08T23:01:18.064Z,37.87
2023-01-08T23:03:49.060Z,37.92
2023-01-08T23:06:17.321Z,38.02
2023-01-08T23:08:45.291Z,37.97
2023-01-08T23:11:13.992Z,37.75
2023-01-08T23:13:41.233Z,37.75
2023-01-08T23:16:09.894Z,37.57
2023-01-08T23:18:37.565Z,37.62
2023-01-08T23:21:07.032Z,37.39
2023-01-08T23:23:33.909Z,37.40
2023-01-08T23:26:10.345Z,37.67
2023-01-08T23:29:33.921Z,37.51
2023-01-08T23:32:00.852Z,37.20
2023-01-08T23:34:27.494Z,37.77
2023-01-08T23:36:54.182Z,37.33
2023-01-08T23:39:21.400Z,37.39
2023-01-08T23:41:48.004Z,37.33
2023-01-08T23:44:15.951Z,37.34
2023-01-08T23:46:42.895Z,37.23
2023-01-08T23:49:10.192Z,37.14
2023-01-08T23:51:37.566Z,37.34
2023-01-08T23:54:04.395Z,37.34
2023-01-08T23:56:31.702Z,37.49
2023-01-08T23:58:58.386Z,37.11
